Nyk Constellation — V7NP4 — position and weather

sailwx.info

Track history (hours):
 
Tides and Currents Weather Stations Pressure Air Temp Water Temp Dewpoint Dewpoint Depression Visibility Wind Speed Wind Dir Waves Ship Positions

Nyk Constellation

Last reported at 2015-Jan-19 13:24 UTC. Time now 2015-Jan-26 20:32 UTC.
Position N 31°43' W 080°28'.

Length 294 m; draft 11.5 m.

Type: Cargo ship. MMSI: 538002992.

Date/timePositionNaut miles runAvg speedWind from/ knotsBaromVisibWave heightAir tempDewpointWater temp
2015-Jan-19 13:24N 31°43' W 080°28'910.9
2015-Jan-19 12:33N 31°50' W 080°36'8 7.7
2015-Jan-19 11:33N 31°56' W 080°40'3 3.4
2015-Jan-19 10:33N 31°58' W 080°44'1110.8
2015-Jan-19 09:33N 32°02' W 080°55'7 6.9
2015-Jan-19 08:33N 32°05' W 081°03'5 4.9
2015-Jan-19 07:33N 32°07' W 081°08'0 0.0
2015-Jan-19 06:33N 32°07' W 081°08'0 0.0
2015-Jan-19 05:32N 32°07' W 081°08'0 0.0
2015-Jan-19 04:33N 32°07' W 081°08'0 0.0
2015-Jan-19 03:34N 32°07' W 081°08'0 0.0
2015-Jan-19 02:33N 32°07' W 081°08'0 0.0
2015-Jan-19 01:33N 32°07' W 081°08'0 0.0
2015-Jan-19 00:33N 32°07' W 081°08'0 0.0
2015-Jan-18 23:33N 32°07' W 081°08'0 0.0
2015-Jan-18 22:33N 32°07' W 081°08'0 0.0
2015-Jan-18 21:33N 32°07' W 081°08'0 0.0
2015-Jan-18 20:33N 32°07' W 081°08'0 0.0
2015-Jan-18 19:33N 32°07' W 081°08'0 0.0
2015-Jan-18 18:33N 32°07' W 081°08'0 0.0
2015-Jan-18 17:32N 32°07' W 081°08'0 0.0
2015-Jan-18 16:33N 32°07' W 081°08'0 0.0
2015-Jan-18 15:33N 32°07' W 081°08'0 0.0
2015-Jan-18 14:33N 32°07' W 081°08'0 0.0
2015-Jan-18 13:33N 32°07' W 081°08'1 1.4
2015-Jan-18 12:33N 32°06' W 081°07'4 4.2
2015-Jan-18 11:34N 32°05' W 081°02'8 8.5
2015-Jan-18 10:33N 32°02' W 080°53'1110.9
2015-Jan-18 09:33N 31°57' W 080°41'7 6.8
2015-Jan-18 08:33N 31°56' W 080°33'6 6.4
2015-Jan-18 07:33N 31°57' W 080°26'  
2015-Jan-15 16:07N 39°11' W 073°51'711.5
2015-Jan-15 15:33N 39°18' W 073°50'1411.6
2015-Jan-15 14:20N 39°32' W 073°49'1011.6
2015-Jan-15 13:27N 39°42' W 073°49'1111.7
2015-Jan-15 12:32N 39°52' W 073°49'1111.6
2015-Jan-15 11:33N 40°04' W 073°49'10 9.6
2015-Jan-15 10:33N 40°13' W 073°49'9 9.5
2015-Jan-15 09:33N 40°23' W 073°49'9 8.5
2015-Jan-15 08:33N 40°30' W 073°56'1110.8
2015-Jan-15 07:33N 40°39' W 074°04'5 5.1
2015-Jan-15 06:33N 40°39' W 074°10'1 0.9
2015-Jan-15 05:31N 40°38' W 074°11'0 0.0
2015-Jan-15 04:31N 40°38' W 074°11'0 0.0
2015-Jan-15 03:25N 40°38' W 074°11'0 0.0
2015-Jan-15 02:31N 40°38' W 074°11'0 0.0
2015-Jan-15 01:28N 40°38' W 074°11'0 0.0
2015-Jan-15 00:25N 40°38' W 074°11'0 0.0
2015-Jan-14 23:31N 40°38' W 074°11'0 0.0
2015-Jan-14 22:28N 40°38' W 074°11'0 0.0
2015-Jan-14 21:31N 40°38' W 074°11'0 0.0
2015-Jan-14 20:28N 40°38' W 074°11'0 0.0
2015-Jan-14 19:31N 40°38' W 074°11'0 0.0
2015-Jan-14 18:31N 40°38' W 074°11'0 0.0
2015-Jan-14 17:13N 40°38' W 074°11'0 0.0
2015-Jan-14 16:25N 40°38' W 074°11'1 0.9
2015-Jan-14 15:34N 40°39' W 074°11'6 6.0
2015-Jan-14 14:33N 40°37' W 074°03'1010.4
2015-Jan-14 13:33N 40°29' W 073°54'8 7.6
2015-Jan-14 12:31N 40°27' W 073°44'8 7.8
2015-Jan-14 11:29N 40°28' W 073°34'26 7.8
2015-Jan-14 08:07N 40°28' W 072°59'2111.9
2015-Jan-14 06:22N 40°30' W 072°32'1417.4
2015-Jan-14 05:33N 40°31' W 072°13'1817.6
2015-Jan-14 04:33N 40°31' W 071°50'1817.8
2015-Jan-14 03:33N 40°31' W 071°27'1817.8
2015-Jan-14 02:33N 40°32' W 071°03'1818.0
2015-Jan-14 01:33N 40°33' W 070°40'2318.0
2015-Jan-14 00:16N 40°33' W 070°09'37619.1
2015-Jan-13 04:33N 44°26' W 063°29'1110.7
2015-Jan-13 03:34N 44°37' W 063°33'5 4.5
2015-Jan-13 02:31N 44°40' W 063°38'0 0.0
2015-Jan-13 01:31N 44°40' W 063°38'0 0.0
2015-Jan-13 00:31N 44°40' W 063°38'0 0.0
2015-Jan-12 23:31N 44°40' W 063°38'0 0.0
2015-Jan-12 22:22N 44°40' W 063°38'0 0.0
2015-Jan-12 21:25N 44°40' W 063°38'0 0.0
2015-Jan-12 20:25N 44°40' W 063°38'0 0.0
2015-Jan-12 19:28N 44°40' W 063°38'0 0.0
2015-Jan-12 18:28N 44°40' W 063°38'0 0.0
2015-Jan-12 17:28N 44°40' W 063°38'0 0.0
2015-Jan-12 16:31N 44°40' W 063°38'0 0.4
2015-Jan-12 15:33N 44°40' W 063°38'6 6.0
2015-Jan-12 14:32N 44°36' W 063°32'9 9.1
2015-Jan-12 13:33N 44°28' W 063°26'  
Track history (hours):
 
Tides and Currents Weather Stations Pressure Air Temp Water Temp Dewpoint Dewpoint Depression Visibility Wind Speed Wind Dir Waves Ship Positions

Nyk Constellation

Last reported at 2015-Jan-19 13:24 UTC. Time now 2015-Jan-26 20:32 UTC.
Position N 31°43' W 080°28'.

Length 294 m; draft 11.5 m.

Type: Cargo ship. MMSI: 538002992.

Date/timePositionNaut miles runAvg speedWind from/ knotsBaromVisibWave heightAir tempDewpointWater temp
2015-Jan-19 13:24N 31°43' W 080°28'910.9
2015-Jan-19 12:33N 31°50' W 080°36'8 7.7
2015-Jan-19 11:33N 31°56' W 080°40'3 3.4
2015-Jan-19 10:33N 31°58' W 080°44'1110.8
2015-Jan-19 09:33N 32°02' W 080°55'7 6.9
2015-Jan-19 08:33N 32°05' W 081°03'5 4.9
2015-Jan-19 07:33N 32°07' W 081°08'0 0.0
2015-Jan-19 06:33N 32°07' W 081°08'0 0.0
2015-Jan-19 05:32N 32°07' W 081°08'0 0.0
2015-Jan-19 04:33N 32°07' W 081°08'0 0.0
2015-Jan-19 03:34N 32°07' W 081°08'0 0.0
2015-Jan-19 02:33N 32°07' W 081°08'0 0.0
2015-Jan-19 01:33N 32°07' W 081°08'0 0.0
2015-Jan-19 00:33N 32°07' W 081°08'0 0.0
2015-Jan-18 23:33N 32°07' W 081°08'0 0.0
2015-Jan-18 22:33N 32°07' W 081°08'0 0.0
2015-Jan-18 21:33N 32°07' W 081°08'0 0.0
2015-Jan-18 20:33N 32°07' W 081°08'0 0.0
2015-Jan-18 19:33N 32°07' W 081°08'0 0.0
2015-Jan-18 18:33N 32°07' W 081°08'0 0.0
2015-Jan-18 17:32N 32°07' W 081°08'0 0.0
2015-Jan-18 16:33N 32°07' W 081°08'0 0.0
2015-Jan-18 15:33N 32°07' W 081°08'0 0.0
2015-Jan-18 14:33N 32°07' W 081°08'0 0.0
2015-Jan-18 13:33N 32°07' W 081°08'1 1.4
2015-Jan-18 12:33N 32°06' W 081°07'4 4.2
2015-Jan-18 11:34N 32°05' W 081°02'8 8.5
2015-Jan-18 10:33N 32°02' W 080°53'1110.9
2015-Jan-18 09:33N 31°57' W 080°41'7 6.8
2015-Jan-18 08:33N 31°56' W 080°33'6 6.4
2015-Jan-18 07:33N 31°57' W 080°26'  
2015-Jan-15 16:07N 39°11' W 073°51'711.5
2015-Jan-15 15:33N 39°18' W 073°50'1411.6
2015-Jan-15 14:20N 39°32' W 073°49'1011.6
2015-Jan-15 13:27N 39°42' W 073°49'1111.7
2015-Jan-15 12:32N 39°52' W 073°49'1111.6
2015-Jan-15 11:33N 40°04' W 073°49'10 9.6
2015-Jan-15 10:33N 40°13' W 073°49'9 9.5
2015-Jan-15 09:33N 40°23' W 073°49'9 8.5
2015-Jan-15 08:33N 40°30' W 073°56'1110.8
2015-Jan-15 07:33N 40°39' W 074°04'5 5.1
2015-Jan-15 06:33N 40°39' W 074°10'1 0.9
2015-Jan-15 05:31N 40°38' W 074°11'0 0.0
2015-Jan-15 04:31N 40°38' W 074°11'0 0.0
2015-Jan-15 03:25N 40°38' W 074°11'0 0.0
2015-Jan-15 02:31N 40°38' W 074°11'0 0.0
2015-Jan-15 01:28N 40°38' W 074°11'0 0.0
2015-Jan-15 00:25N 40°38' W 074°11'0 0.0
2015-Jan-14 23:31N 40°38' W 074°11'0 0.0
2015-Jan-14 22:28N 40°38' W 074°11'0 0.0
2015-Jan-14 21:31N 40°38' W 074°11'0 0.0
2015-Jan-14 20:28N 40°38' W 074°11'0 0.0
2015-Jan-14 19:31N 40°38' W 074°11'0 0.0
2015-Jan-14 18:31N 40°38' W 074°11'0 0.0
2015-Jan-14 17:13N 40°38' W 074°11'0 0.0
2015-Jan-14 16:25N 40°38' W 074°11'1 0.9
2015-Jan-14 15:34N 40°39' W 074°11'6 6.0
2015-Jan-14 14:33N 40°37' W 074°03'1010.4
2015-Jan-14 13:33N 40°29' W 073°54'8 7.6
2015-Jan-14 12:31N 40°27' W 073°44'8 7.8
2015-Jan-14 11:29N 40°28' W 073°34'26 7.8
2015-Jan-14 08:07N 40°28' W 072°59'2111.9
2015-Jan-14 06:22N 40°30' W 072°32'1417.4
2015-Jan-14 05:33N 40°31' W 072°13'1817.6
2015-Jan-14 04:33N 40°31' W 071°50'1817.8
2015-Jan-14 03:33N 40°31' W 071°27'1817.8
2015-Jan-14 02:33N 40°32' W 071°03'1818.0
2015-Jan-14 01:33N 40°33' W 070°40'2318.0
2015-Jan-14 00:16N 40°33' W 070°09'37619.1
2015-Jan-13 04:33N 44°26' W 063°29'1110.7
2015-Jan-13 03:34N 44°37' W 063°33'5 4.5
2015-Jan-13 02:31N 44°40' W 063°38'0 0.0
2015-Jan-13 01:31N 44°40' W 063°38'0 0.0
2015-Jan-13 00:31N 44°40' W 063°38'0 0.0
2015-Jan-12 23:31N 44°40' W 063°38'0 0.0
2015-Jan-12 22:22N 44°40' W 063°38'0 0.0
2015-Jan-12 21:25N 44°40' W 063°38'0 0.0
2015-Jan-12 20:25N 44°40' W 063°38'0 0.0
2015-Jan-12 19:28N 44°40' W 063°38'0 0.0
2015-Jan-12 18:28N 44°40' W 063°38'0 0.0
2015-Jan-12 17:28N 44°40' W 063°38'0 0.0
2015-Jan-12 16:31N 44°40' W 063°38'0 0.4
2015-Jan-12 15:33N 44°40' W 063°38'6 6.0
2015-Jan-12 14:32N 44°36' W 063°32'9 9.1
2015-Jan-12 13:33N 44°28' W 063°26'  

Dump ship's entire track history